Time;durP1;ratioP1;P1;durP2;ratioP2;P2;SDS_P1;SDS_P2;PMS_P1;PMS_P2;Temp;Humidity;BMP_temperature;BMP_pressure;BME280_temperature;BME280_humidity;BME280_pressure;Samples;Min_cycle;Max_cycle;Signal;HPM_P1;HPM_P2
2023/06/03 00:00:03;;;;;;;1.93;0.90;;;;;;;8.83;100.00;102105.59;5019968;28;20190;-81
2023/06/03 00:02:29;;;;;;;1.53;1.10;;;;;;;8.75;100.00;102098.31;5028476;28;21560;-79
2023/06/03 00:04:55;;;;;;;1.23;0.80;;;;;;;9.51;100.00;102258.28;5041702;28;20510;-80
2023/06/03 00:07:20;;;;;;;1.40;1.00;;;;;;;9.71;100.00;102277.69;5023882;28;20192;-80
2023/06/03 00:09:46;;;;;;;1.00;0.80;;;;;;;8.75;100.00;102135.78;5042713;28;20623;-80
2023/06/03 00:12:11;;;;;;;1.00;0.90;;;;;;;8.25;100.00;102056.13;5040536;28;20633;-80
2023/06/03 00:14:37;;;;;;;1.43;1.00;;;;;;;8.76;100.00;102128.59;5039949;28;20788;-80
2023/06/03 00:17:03;;;;;;;1.47;0.80;;;;;;;9.43;100.00;102274.34;5042866;28;20192;-80
2023/06/03 00:19:28;;;;;;;1.63;1.00;;;;;;;10.35;100.00;102452.53;5044870;28;20212;-80
2023/06/03 00:21:54;;;;;;;1.47;1.00;;;;;;;9.70;100.00;102304.66;5046720;28;20212;-81
2023/06/03 00:24:22;;;;;;;2.23;1.10;;;;;;;8.63;100.00;102149.56;5028290;28;20560;-81
2023/06/03 00:26:48;;;;;;;2.07;1.13;;;;;;;9.86;100.00;102357.50;5032588;28;20188;-81
2023/06/03 00:29:13;;;;;;;1.20;1.00;;;;;;;8.48;100.00;102098.47;5027947;28;20852;-80
2023/06/03 00:31:39;;;;;;;6.20;1.20;;;;;;;9.77;100.00;102355.75;5046629;28;20175;-80
2023/06/03 00:34:04;;;;;;;1.67;1.10;;;;;;;8.89;100.00;102203.13;5043494;28;20180;-81
2023/06/03 00:36:29;;;;;;;1.00;0.90;;;;;;;8.37;100.00;102097.66;5044719;28;20195;-80
2023/06/03 00:38:55;;;;;;;1.70;1.10;;;;;;;8.71;100.00;102139.78;5046987;28;20204;-80
2023/06/03 00:41:20;;;;;;;1.37;0.83;;;;;;;9.44;100.00;102284.03;5047137;28;20191;-80
2023/06/03 00:43:46;;;;;;;3.60;1.17;;;;;;;8.50;100.00;102132.03;5045945;28;20212;-79
2023/06/03 00:46:13;;;;;;;2.47;1.17;;;;;;;10.10;100.00;102462.22;5044417;28;20230;-80
2023/06/03 00:48:39;;;;;;;1.47;0.90;;;;;;;9.80;100.00;102358.13;5044773;28;20187;-80
2023/06/03 00:51:06;;;;;;;3.40;1.20;;;;;;;8.48;100.00;102163.47;5043951;28;21465;-80
2023/06/03 00:53:32;;;;;;;1.90;1.10;;;;;;;10.29;100.00;102492.56;5040716;28;20974;-79
2023/06/03 00:55:58;;;;;;;1.50;0.90;;;;;;;7.87;100.00;102050.09;5039549;28;20437;-80
2023/06/03 00:58:23;;;;;;;1.60;0.90;;;;;;;10.54;100.00;102521.25;5038532;28;20208;-80
2023/06/03 01:00:49;;;;;;;2.40;0.80;;;;;;;8.21;100.00;102137.59;5040475;28;20436;-80
2023/06/03 01:03:14;;;;;;;1.20;1.10;;;;;;;10.32;100.00;102538.69;5041373;28;20208;-80
2023/06/03 01:05:45;;;;;;;1.40;0.90;;;;;;;9.31;100.00;102344.34;5038418;28;20212;-80
2023/06/03 01:09:01;;;;;;;1.50;0.90;;;;;;;10.28;100.00;102499.78;5021056;28;20761;-80
2023/06/03 01:11:36;;;;;;;0.90;0.77;;;;;;;10.38;100.00;102502.34;5031733;28;20552;-79
2023/06/03 01:14:10;;;;;;;2.50;1.00;;;;;;;8.04;100.00;102136.59;5041297;28;20971;-79
2023/06/03 01:16:41;;;;;;;1.50;1.20;;;;;;;9.37;100.00;102389.25;5026472;28;21009;-79
2023/06/03 01:19:36;;;;;;;2.13;1.20;;;;;;;7.91;100.00;102144.13;5025878;28;20476;-79
2023/06/03 01:22:03;;;;;;;1.90;1.00;;;;;;;9.58;100.00;102387.09;5024063;28;20458;-79
2023/06/03 01:24:30;;;;;;;1.00;0.80;;;;;;;8.41;100.00;102245.25;5039966;28;20452;-79
2023/06/03 01:26:56;;;;;;;1.97;1.20;;;;;;;9.27;100.00;102375.94;5024540;28;20991;-79
2023/06/03 01:29:22;;;;;;;1.80;1.33;;;;;;;9.09;100.00;102282.25;5039627;28;20491;-80
2023/06/03 01:31:48;;;;;;;1.73;0.93;;;;;;;10.31;100.00;102515.53;5039940;28;20453;-79
2023/06/03 01:34:14;;;;;;;2.30;1.03;;;;;;;8.10;100.00;102159.19;5042435;28;21307;-80
2023/06/03 01:36:40;;;;;;;1.20;1.10;;;;;;;8.28;100.00;102168.09;5040528;28;20218;-79
2023/06/03 01:39:06;;;;;;;1.30;0.90;;;;;;;8.30;100.00;102218.69;5037749;28;20474;-79
2023/06/03 01:41:33;;;;;;;1.47;0.90;;;;;;;9.57;100.00;102401.47;5037188;28;20223;-79
2023/06/03 01:43:59;;;;;;;1.90;1.20;;;;;;;7.65;100.00;102088.72;5022150;28;20466;-79
2023/06/03 01:46:24;;;;;;;2.60;1.07;;;;;;;8.65;100.00;102295.53;5040795;28;20485;-79
2023/06/03 01:48:50;;;;;;;1.50;1.27;;;;;;;8.38;100.00;102235.72;5039199;28;20631;-79
2023/06/03 01:51:15;;;;;;;2.73;1.17;;;;;;;8.04;100.00;102166.00;5044827;28;20184;-79
2023/06/03 01:53:41;;;;;;;1.97;1.10;;;;;;;8.83;100.00;102315.09;5042712;28;20210;-80
2023/06/03 01:56:06;;;;;;;1.30;1.10;;;;;;;8.56;100.00;102286.56;5042623;28;20188;-79
2023/06/03 01:58:32;;;;;;;1.67;0.90;;;;;;;9.02;100.00;102351.59;5042929;28;20211;-79
2023/06/03 02:00:57;;;;;;;1.33;0.93;;;;;;;7.40;100.00;102092.91;5045787;28;20192;-79
2023/06/03 02:03:23;;;;;;;1.63;1.43;;;;;;;8.28;100.00;102250.94;5044123;28;20200;-79
2023/06/03 02:05:48;;;;;;;1.40;1.17;;;;;;;7.51;100.00;102109.75;5044117;28;20191;-79
2023/06/03 02:08:13;;;;;;;2.07;0.90;;;;;;;7.37;100.00;102079.84;5042520;28;20638;-78
2023/06/03 02:10:39;;;;;;;1.53;0.83;;;;;;;7.73;100.00;102183.31;5044142;28;20233;-79
2023/06/03 02:13:04;;;;;;;1.43;0.97;;;;;;;8.70;100.00;102282.53;5043332;28;20230;-80
2023/06/03 02:15:30;;;;;;;2.50;1.17;;;;;;;8.61;100.00;102283.44;5043529;28;20180;-79
2023/06/03 02:17:56;;;;;;;1.97;1.10;;;;;;;9.54;100.00;102454.53;5044056;28;20276;-79
2023/06/03 02:20:22;;;;;;;2.23;1.10;;;;;;;9.56;100.00;102469.44;5024532;28;20638;-79
2023/06/03 02:22:48;;;;;;;2.20;1.30;;;;;;;7.50;100.00;102121.41;5041964;28;20986;-79
2023/06/03 02:25:13;;;;;;;1.80;1.07;;;;;;;9.46;100.00;102388.34;5045298;28;20418;-79
2023/06/03 02:27:39;;;;;;;1.47;1.07;;;;;;;10.28;100.00;102525.75;5026352;28;20195;-79
2023/06/03 02:30:05;;;;;;;1.93;1.10;;;;;;;8.22;100.00;102248.88;5044266;28;20187;-79
2023/06/03 02:32:31;;;;;;;1.40;1.03;;;;;;;8.12;100.00;102245.41;5026625;28;20199;-79
2023/06/03 02:34:56;;;;;;;1.63;1.10;;;;;;;7.40;100.00;102132.94;5043521;28;20795;-79
2023/06/03 02:37:22;;;;;;;5.90;1.13;;;;;;;7.96;100.00;102272.75;5043479;28;20195;-79
2023/06/03 02:39:47;;;;;;;3.03;1.00;;;;;;;9.46;100.00;102498.16;5023357;28;20212;-79
2023/06/03 02:42:13;;;;;;;1.70;1.10;;;;;;;7.38;100.00;102092.25;5029940;28;20296;-79
2023/06/03 02:44:38;;;;;;;1.23;1.00;;;;;;;7.63;100.00;102145.94;5026712;28;20642;-78
2023/06/03 02:47:04;;;;;;;1.80;1.20;;;;;;;8.23;100.00;102244.38;5040235;28;20192;-79
2023/06/03 02:49:30;;;;;;;1.53;1.30;;;;;;;8.57;100.00;102311.47;5040783;28;20249;-79
2023/06/03 02:51:57;;;;;;;1.27;1.03;;;;;;;9.17;100.00;102394.75;5038515;28;20208;-78
2023/06/03 02:54:23;;;;;;;1.70;1.30;;;;;;;10.17;100.00;102546.41;5026273;28;20210;-78
2023/06/03 02:56:49;;;;;;;2.17;1.30;;;;;;;8.65;100.00;102314.25;5040476;28;20441;-78
2023/06/03 02:59:14;;;;;;;1.50;1.17;;;;;;;7.93;100.00;102238.31;5043440;28;20313;-79
2023/06/03 03:01:40;;;;;;;1.13;0.90;;;;;;;7.82;100.00;102201.94;5044101;28;20184;-78
2023/06/03 03:04:05;;;;;;;2.60;1.17;;;;;;;8.08;100.00;102236.84;5040270;28;20229;-79
2023/06/03 03:06:31;;;;;;;2.53;1.00;;;;;;;8.76;100.00;102372.88;5044235;28;20188;-79
2023/06/03 03:08:56;;;;;;;2.03;1.03;;;;;;;7.68;100.00;102237.97;5042584;28;20188;-79
2023/06/03 03:11:22;;;;;;;4.27;1.10;;;;;;;7.09;100.00;102126.16;5027680;28;20859;-79
2023/06/03 03:13:48;;;;;;;5.00;1.63;;;;;;;8.82;100.00;102399.06;5043368;28;20724;-79
2023/06/03 03:16:13;;;;;;;1.37;1.17;;;;;;;8.43;100.00;102430.47;5045528;28;20183;-79
2023/06/03 03:18:40;;;;;;;2.03;0.90;;;;;;;7.39;100.00;102190.00;5043072;28;20286;-78
2023/06/03 03:21:05;;;;;;;1.47;1.03;;;;;;;8.64;100.00;102402.66;5042415;28;20466;-78
2023/06/03 03:23:32;;;;;;;2.50;1.40;;;;;;;9.83;100.00;102567.69;5042668;28;20926;-78
2023/06/03 03:25:58;;;;;;;2.33;1.77;;;;;;;7.79;100.00;102236.97;5025208;28;20314;-78
2023/06/03 03:28:24;;;;;;;2.23;1.40;;;;;;;9.84;100.00;102565.88;5024788;28;20457;-78
2023/06/03 03:30:50;;;;;;;2.23;0.90;;;;;;;8.05;100.00;102222.94;5029544;28;20513;-79
2023/06/03 03:33:19;;;;;;;1.93;1.10;;;;;;;9.66;100.00;102541.72;5038394;28;20207;-78
2023/06/03 03:35:44;;;;;;;2.80;1.20;;;;;;;7.60;100.00;102196.97;5039633;28;20191;-79
2023/06/03 03:38:11;;;;;;;2.13;1.10;;;;;;;8.90;100.00;102384.06;5041216;28;20454;-78
2023/06/03 03:40:37;;;;;;;1.80;1.40;;;;;;;7.82;100.00;102204.63;5039909;28;20195;-78
2023/06/03 03:43:03;;;;;;;2.90;1.30;;;;;;;9.04;100.00;102399.63;5043321;28;20438;-79
2023/06/03 03:45:34;;;;;;;2.13;1.33;;;;;;;7.83;100.00;102232.16;5041407;28;20436;-79
2023/06/03 03:48:04;;;;;;;1.43;1.33;;;;;;;8.12;100.00;102240.88;5029192;28;20438;-79
2023/06/03 03:50:46;;;;;;;2.20;1.30;;;;;;;10.09;100.00;102586.53;5041712;28;20959;-78
2023/06/03 03:53:14;;;;;;;1.93;1.20;;;;;;;9.48;100.00;102450.63;5045152;28;20492;-78
2023/06/03 03:55:42;;;;;;;2.07;1.20;;;;;;;9.17;100.00;102409.94;5043981;28;20431;-79
2023/06/03 03:58:29;;;;;;;2.20;1.33;;;;;;;9.00;100.00;102403.59;5042607;28;20466;-78
2023/06/03 04:01:00;;;;;;;2.00;1.57;;;;;;;9.25;100.00;102440.34;5044456;28;20908;-79
2023/06/03 04:03:29;;;;;;;2.20;1.20;;;;;;;9.23;100.00;102387.97;5043762;28;20496;-78
2023/06/03 04:05:55;;;;;;;1.17;1.07;;;;;;;9.36;100.00;102438.44;5028485;28;20434;-79
2023/06/03 04:08:47;;;;;;;2.63;1.57;;;;;;;9.16;100.00;102384.19;5038597;28;20449;-78
2023/06/03 04:11:23;;;;;;;1.83;1.10;;;;;;;9.18;100.00;102391.06;5047370;28;20415;-78
2023/06/03 04:13:48;;;;;;;2.03;1.30;;;;;;;10.28;100.00;102550.72;5025235;23;20506;-70
2023/06/03 04:16:34;;;;;;;2.40;1.37;;;;;;;10.26;100.00;102558.03;4987667;28;20427;-70
2023/06/03 04:19:06;;;;;;;1.77;1.10;;;;;;;10.29;100.00;102567.66;5004606;28;20280;-70
2023/06/03 04:21:37;;;;;;;1.23;1.13;;;;;;;9.66;100.00;102434.53;5001143;28;20440;-70
2023/06/03 04:24:05;;;;;;;1.70;1.23;;;;;;;10.50;100.00;102561.94;5007292;28;20460;-70
2023/06/03 04:26:30;;;;;;;2.50;1.50;;;;;;;10.40;100.00;102568.25;5006282;28;20506;-70
2023/06/03 04:28:56;;;;;;;2.20;1.00;;;;;;;10.53;100.00;102565.19;5006582;28;20427;-70
2023/06/03 04:31:21;;;;;;;1.77;1.30;;;;;;;9.94;100.00;102488.91;5005034;28;20177;-70
2023/06/03 04:33:47;;;;;;;2.80;1.30;;;;;;;10.51;100.00;102575.22;5006956;28;20204;-70
2023/06/03 04:36:12;;;;;;;1.83;1.20;;;;;;;9.72;100.00;102466.09;5005882;28;20544;-70
2023/06/03 04:38:38;;;;;;;4.23;1.40;;;;;;;10.04;100.00;102483.44;5005922;28;20321;-70
2023/06/03 04:41:04;;;;;;;2.73;1.13;;;;;;;10.15;100.00;102510.00;5020553;28;20794;-71
2023/06/03 04:43:29;;;;;;;2.03;1.30;;;;;;;10.24;100.00;102508.25;5004472;28;20523;-71
2023/06/03 04:45:55;;;;;;;2.83;1.53;;;;;;;10.44;100.00;102543.78;5000323;28;21087;-71
2023/06/03 04:48:23;;;;;;;2.13;1.23;;;;;;;9.76;100.00;102493.44;5002753;28;20642;-71
2023/06/03 04:50:49;;;;;;;2.53;1.30;;;;;;;9.95;100.00;102503.97;5006460;28;20243;-70
2023/06/03 04:53:15;;;;;;;1.60;1.27;;;;;;;10.23;100.00;102533.38;5007016;28;21021;-70
2023/06/03 04:55:44;;;;;;;4.60;1.90;;;;;;;10.60;100.00;102585.00;5019430;28;20515;-70
2023/06/03 04:58:12;;;;;;;1.83;1.30;;;;;;;10.63;100.00;102578.50;5001705;28;20213;-71
2023/06/03 05:00:40;;;;;;;2.37;1.50;;;;;;;10.92;100.00;102588.09;5003351;28;20435;-70
2023/06/03 05:03:08;;;;;;;3.40;1.37;;;;;;;11.03;100.00;102582.44;5019687;28;20475;-70
2023/06/03 05:05:37;;;;;;;2.10;1.10;;;;;;;10.36;100.00;102504.38;5002610;28;20432;-70
2023/06/03 05:08:03;;;;;;;2.07;1.20;;;;;;;10.62;100.00;102483.75;5005776;28;20455;-70
2023/06/03 05:10:28;;;;;;;2.77;1.67;;;;;;;11.04;100.00;102536.63;5002436;28;20475;-70
2023/06/03 05:12:57;;;;;;;3.73;1.47;;;;;;;10.85;100.00;102497.44;5008891;28;20304;-70
2023/06/03 05:15:22;;;;;;;2.37;1.37;;;;;;;11.32;100.00;102574.88;5002930;28;20588;-70
2023/06/03 05:17:47;;;;;;;3.97;1.43;;;;;;;11.41;100.00;102577.59;5004389;28;20447;-70
2023/06/03 05:20:13;;;;;;;1.70;1.00;;;;;;;11.42;100.00;102580.09;5019763;28;20188;-70
2023/06/03 05:22:38;;;;;;;3.50;1.50;;;;;;;11.59;100.00;102596.31;5022495;28;20427;-70
2023/06/03 05:25:05;;;;;;;3.30;1.80;;;;;;;11.41;100.00;102577.59;5018112;28;20184;-71
2023/06/03 05:27:30;;;;;;;3.47;1.40;;;;;;;11.21;100.00;102507.16;5025275;28;20191;-70
2023/06/03 05:29:56;;;;;;;2.10;1.30;;;;;;;11.77;100.00;102573.69;5024676;28;20411;-70
2023/06/03 05:32:21;;;;;;;2.07;1.43;;;;;;;11.54;100.00;102517.03;5021857;28;20628;-71
2023/06/03 05:34:47;;;;;;;7.17;1.40;;;;;;;11.73;100.00;102563.41;5023104;28;20275;-70
2023/06/03 05:37:12;;;;;;;3.97;1.50;;;;;;;11.72;100.00;102537.56;5024880;28;20184;-71
2023/06/03 05:39:38;;;;;;;1.87;1.57;;;;;;;11.93;100.00;102574.75;5024193;28;20571;-71
2023/06/03 05:42:04;;;;;;;2.27;1.27;;;;;;;12.01;100.00;102579.31;5023355;28;20215;-70
2023/06/03 05:44:29;;;;;;;2.43;1.30;;;;;;;11.60;100.00;102493.16;5005161;28;20184;-70
2023/06/03 05:46:55;;;;;;;2.13;1.40;;;;;;;11.98;100.00;102502.50;5005192;28;20276;-70
2023/06/03 05:49:20;;;;;;;2.80;1.13;;;;;;;11.90;100.00;102497.94;5023431;28;20178;-70
2023/06/03 05:51:45;;;;;;;1.70;1.07;;;;;;;12.43;100.00;102555.78;5020786;28;20671;-70
2023/06/03 05:54:12;;;;;;;3.30;1.10;;;;;;;12.25;100.00;102517.44;5023532;28;20197;-70
2023/06/03 05:56:37;;;;;;;3.57;1.40;;;;;;;12.23;100.00;102513.25;5024176;28;20189;-71
2023/06/03 05:59:03;;;;;;;3.87;1.50;;;;;;;12.63;100.00;102523.13;5025033;28;20463;-70
2023/06/03 06:01:30;;;;;;;2.27;1.30;;;;;;;12.81;100.00;102545.28;5023593;28;20227;-71
2023/06/03 06:03:55;;;;;;;2.70;1.10;;;;;;;12.92;100.00;102549.47;5021648;28;20231;-71
2023/06/03 06:06:21;;;;;;;1.00;0.90;;;;;;;12.34;100.00;102478.75;5007680;28;20474;-70
2023/06/03 06:08:46;;;;;;;1.37;0.83;;;;;;;12.25;100.00;102473.56;5023053;28;20176;-70
2023/06/03 06:11:13;;;;;;;1.90;1.10;;;;;;;12.76;100.00;102549.53;5022939;28;20278;-71
2023/06/03 06:13:39;;;;;;;2.40;1.00;;;;;;;12.54;100.00;102505.31;5002726;28;20689;-71
2023/06/03 06:16:05;;;;;;;2.73;1.10;;;;;;;12.20;100.00;102469.53;5022040;28;20506;-71
2023/06/03 06:18:30;;;;;;;1.80;1.00;;;;;;;12.87;100.00;102547.31;5023648;28;20199;-70
2023/06/03 06:20:56;;;;;;;2.03;1.20;;;;;;;12.17;100.00;102423.28;5026320;28;20814;-71
2023/06/03 06:23:22;;;;;;;1.07;0.90;;;;;;;12.43;100.00;102458.88;5023829;28;20207;-70
2023/06/03 06:25:49;;;;;;;2.10;1.10;;;;;;;12.72;100.00;102476.31;5022425;28;20439;-71
2023/06/03 06:28:19;;;;;;;1.60;1.10;;;;;;;12.81;100.00;102491.44;5007217;28;20180;-71
2023/06/03 06:30:45;;;;;;;1.83;1.07;;;;;;;12.88;100.00;102486.22;5024324;28;20426;-70
2023/06/03 06:33:17;;;;;;;1.20;0.83;;;;;;;13.16;100.00;102508.13;5006776;28;20459;-70
2023/06/03 06:35:43;;;;;;;3.43;1.03;;;;;;;13.27;100.00;102528.50;5022370;28;20710;-70
2023/06/03 06:38:08;;;;;;;2.37;1.00;;;;;;;13.05;100.00;102481.59;5022541;28;20578;-70
2023/06/03 06:40:35;;;;;;;2.20;0.80;;;;;;;13.49;100.00;102534.97;5022107;28;20529;-70
2023/06/03 06:43:03;;;;;;;1.57;1.00;;;;;;;12.87;100.00;102427.94;5022752;28;20200;-70
2023/06/03 06:45:32;;;;;;;1.50;0.87;;;;;;;12.98;100.00;102451.81;5023970;28;20423;-70
2023/06/03 06:48:06;;;;;;;1.20;0.97;;;;;;;13.24;100.00;102469.53;5022889;28;20481;-70
2023/06/03 06:51:02;;;;;;;2.70;1.00;;;;;;;13.23;100.00;102459.78;5022713;28;20422;-71
2023/06/03 06:53:28;;;;;;;4.00;1.07;;;;;;;13.81;100.00;102525.84;5006103;28;20582;-71
2023/06/03 06:55:56;;;;;;;2.50;0.83;;;;;;;13.36;100.00;102438.50;5020400;28;20431;-71
2023/06/03 06:58:24;;;;;;;1.33;0.90;;;;;;;13.76;100.00;102539.00;5021649;28;20806;-71
2023/06/03 07:00:50;;;;;;;2.70;1.40;;;;;;;13.70;100.00;102501.97;5010505;28;20420;-71
2023/06/03 07:03:17;;;;;;;2.43;0.97;;;;;;;14.11;100.00;102534.88;5007145;28;20451;-71
2023/06/03 07:05:44;;;;;;;1.37;0.80;;;;;;;13.91;100.00;102509.41;5021836;28;20176;-71
2023/06/03 07:08:10;;;;;;;3.13;1.00;;;;;;;14.17;100.00;102530.63;5021895;28;20408;-72
2023/06/03 07:10:35;;;;;;;1.67;1.13;;;;;;;13.70;100.00;102448.03;5005938;28;20425;-71
2023/06/03 07:13:02;;;;;;;1.57;0.97;;;;;;;14.43;100.00;102530.22;5018497;28;20220;-71
2023/06/03 07:15:40;;;;;;;1.77;1.03;;;;;;;14.19;100.00;102496.19;5018392;28;20443;-71
2023/06/03 07:18:05;;;;;;;1.60;1.00;;;;;;;13.86;100.00;102450.63;5002785;28;20461;-72
2023/06/03 07:20:38;;;;;;;2.27;0.90;;;;;;;14.43;100.00;102535.63;5014253;28;20443;-71
2023/06/03 07:23:08;;;;;;;1.10;0.93;;;;;;;14.52;100.00;102531.00;5014066;28;20215;-71
2023/06/03 07:25:37;;;;;;;1.40;1.00;;;;;;;14.11;100.00;102467.41;5018777;28;20482;-71
2023/06/03 07:28:05;;;;;;;1.20;0.90;;;;;;;14.69;100.00;102532.53;5021047;28;20446;-71
2023/06/03 07:30:35;;;;;;;1.40;0.90;;;;;;;14.50;100.00;102496.06;5021593;28;20929;-71
2023/06/03 07:33:02;;;;;;;1.90;0.80;;;;;;;14.68;100.00;102518.19;5017056;28;20501;-71
2023/06/03 07:35:28;;;;;;;1.37;0.90;;;;;;;14.29;100.00;102436.56;5018538;28;20471;-71
2023/06/03 07:37:53;;;;;;;1.63;0.80;;;;;;;14.66;100.00;102506.72;5022418;28;21760;-71
2023/06/03 07:40:24;;;;;;;1.37;0.90;;;;;;;14.58;100.00;102497.88;5020935;28;20252;-71
2023/06/03 07:42:49;;;;;;;1.50;1.00;;;;;;;14.76;100.00;102517.28;5022971;28;20283;-70
2023/06/03 07:45:15;;;;;;;0.80;0.70;;;;;;;14.57;100.00;102470.03;5025644;28;20924;-71
2023/06/03 07:47:40;;;;;;;1.03;0.70;;;;;;;15.00;100.00;102510.75;5019887;28;20189;-71
2023/06/03 07:50:24;;;;;;;2.07;0.90;;;;;;;15.18;100.00;102531.13;5022477;28;22057;-71
2023/06/03 07:53:08;;;;;;;2.43;0.93;;;;;;;15.34;100.00;102522.81;5008738;28;20945;-71
2023/06/03 07:55:53;;;;;;;1.40;1.10;;;;;;;15.22;100.00;102503.56;5022732;28;20991;-71
2023/06/03 07:58:19;;;;;;;2.37;1.23;;;;;;;15.42;100.00;102530.81;5024031;28;20478;-71
2023/06/03 08:00:54;;;;;;;1.87;0.87;;;;;;;14.90;100.00;102440.78;5023517;28;20512;-70
2023/06/03 08:03:22;;;;;;;1.20;0.70;;;;;;;15.47;100.00;102528.38;5022753;28;20497;-70
2023/06/03 08:05:49;;;;;;;1.77;0.87;;;;;;;14.97;100.00;102456.25;5024795;28;20454;-70
2023/06/03 08:08:17;;;;;;;1.33;0.60;;;;;;;14.89;100.00;102420.19;5023643;28;20427;-71
2023/06/03 08:10:46;;;;;;;2.50;0.70;;;;;;;15.16;100.00;102434.03;5020934;28;20473;-70
2023/06/03 08:13:12;;;;;;;1.97;0.90;;;;;;;15.74;100.00;102526.00;5026928;28;20545;-70
2023/06/03 08:15:38;;;;;;;1.83;0.90;;;;;;;15.20;100.00;102429.91;5022188;28;20491;-71
2023/06/03 08:18:08;;;;;;;2.20;0.90;;;;;;;15.82;100.00;102518.63;5008973;28;20510;-71
2023/06/03 08:20:36;;;;;;;3.50;0.90;;;;;;;15.81;100.00;102521.50;5023379;28;20443;-70
2023/06/03 08:23:02;;;;;;;2.53;0.83;;;;;;;15.48;100.00;102442.69;5005962;28;20813;-70
2023/06/03 08:25:28;;;;;;;1.57;0.80;;;;;;;15.14;100.00;102385.56;5018583;28;20440;-70
2023/06/03 08:27:53;;;;;;;3.30;1.00;;;;;;;16.08;100.00;102514.47;5019207;28;20457;-71
2023/06/03 08:30:21;;;;;;;2.50;1.00;;;;;;;15.47;100.00;102428.31;5015064;28;20203;-70
2023/06/03 08:32:48;;;;;;;1.50;0.90;;;;;;;15.64;100.00;102414.53;5023289;28;20403;-72
2023/06/03 08:35:18;;;;;;;2.13;0.80;;;;;;;15.72;100.00;102436.09;5014604;28;20827;-75
2023/06/03 08:37:44;;;;;;;1.60;0.80;;;;;;;16.27;100.00;102512.97;5011858;28;20498;-83
2023/06/03 08:40:12;;;;;;;1.57;0.77;;;;;;;16.01;100.00;102464.84;5014320;28;21009;-79
2023/06/03 08:42:46;;;;;;;2.83;0.80;;;;;;;16.32;100.00;102499.69;5019635;28;20863;-90
2023/06/03 08:45:23;;;;;;;2.40;0.80;;;;;;;16.16;100.00;102437.69;5016519;28;20445;-80
2023/06/03 08:48:04;;;;;;;0.90;0.70;;;;;;;16.59;100.00;102494.44;5021278;28;20450;-89
2023/06/03 08:50:32;;;;;;;2.93;0.80;;;;;;;15.71;100.00;102393.84;5019956;28;20430;-87
2023/06/03 08:53:03;;;;;;;1.67;0.97;;;;;;;16.31;100.00;102478.22;5021503;28;20525;-87
2023/06/03 08:55:30;;;;;;;1.23;0.90;;;;;;;16.33;100.00;102474.28;5020219;28;20447;-88
2023/06/03 08:58:10;;;;;;;1.20;0.80;;;;;;;16.47;100.00;102494.16;5022979;28;20447;-89
2023/06/03 09:00:36;;;;;;;0.80;0.80;;;;;;;16.27;100.00;102492.13;5024548;28;20451;-82
2023/06/03 09:03:04;;;;;;;0.70;0.60;;;;;;;16.08;100.00;102424.31;5013771;28;20461;-85
2023/06/03 09:05:32;;;;;;;3.60;0.80;;;;;;;16.60;100.00;102510.50;5019183;28;20974;-89
2023/06/03 09:07:58;;;;;;;1.00;0.77;;;;;;;15.87;100.00;102387.31;5016956;28;20431;-84
2023/06/03 09:10:26;;;;;;;1.37;0.80;;;;;;;16.59;100.00;102497.16;5025533;28;20436;-79
2023/06/03 09:12:55;;;;;;;1.77;0.90;;;;;;;16.49;100.00;102476.69;5018204;28;20474;-80
2023/06/03 09:15:22;;;;;;;1.23;0.90;;;;;;;15.67;100.00;102351.94;5018072;28;20447;-79
2023/06/03 09:17:48;;;;;;;0.90;0.50;;;;;;;16.48;100.00;102474.16;5015470;28;20446;-81
2023/06/03 09:20:14;;;;;;;1.53;0.70;;;;;;;16.44;100.00;102438.53;5020227;28;20444;-80
2023/06/03 09:22:47;;;;;;;1.30;1.10;;;;;;;16.61;100.00;102482.38;5013150;28;20734;-80
2023/06/03 09:25:13;;;;;;;2.20;1.03;;;;;;;16.18;100.00;102412.09;5017168;28;20538;-79
2023/06/03 09:27:39;;;;;;;1.77;0.70;;;;;;;16.13;100.00;102401.03;5013679;28;20545;-82
2023/06/03 09:30:05;;;;;;;3.57;0.90;;;;;;;16.23;100.00;102395.28;5010452;28;20180;-79
2023/06/03 09:32:35;;;;;;;1.40;0.80;;;;;;;16.22;100.00;102407.13;5010410;28;20481;-79
2023/06/03 09:35:04;;;;;;;1.70;0.90;;;;;;;16.84;100.00;102479.41;5010101;28;21182;-79
2023/06/03 09:37:31;;;;;;;1.00;0.70;;;;;;;16.87;100.00;102483.59;5004730;28;20439;-80
2023/06/03 09:39:57;;;;;;;1.67;0.70;;;;;;;16.94;100.00;102490.72;5020024;28;20474;-89
2023/06/03 09:42:22;;;;;;;1.87;0.90;;;;;;;16.28;100.00;102363.84;5019810;28;20541;-89
2023/06/03 09:44:49;;;;;;;1.73;1.10;;;;;;;16.44;100.00;102403.31;5019049;28;20581;-78
2023/06/03 09:47:17;;;;;;;2.00;1.10;;;;;;;17.07;100.00;102481.00;5019997;28;20192;-74
2023/06/03 09:50:03;;;;;;;1.20;0.80;;;;;;;17.03;100.00;102471.56;5000346;28;20826;-77
2023/06/03 09:52:38;;;;;;;1.00;0.70;;;;;;;16.58;100.00;102398.81;5019504;28;20486;-73
2023/06/03 09:55:06;;;;;;;1.50;0.90;;;;;;;17.07;100.00;102476.41;5014083;28;20485;-73
2023/06/03 09:57:32;;;;;;;1.43;0.83;;;;;;;16.84;100.00;102440.66;5023701;28;20446;-73
2023/06/03 10:00:07;;;;;;;1.23;0.77;;;;;;;16.99;100.00;102470.31;5025296;28;21047;-73
2023/06/03 10:02:36;;;;;;;1.33;0.70;;;;;;;17.31;100.00;102476.91;5024134;28;20550;-73
2023/06/03 10:05:01;;;;;;;1.53;1.07;;;;;;;16.51;100.00;102378.97;5019910;28;20827;-74
2023/06/03 10:07:27;;;;;;;2.70;0.90;;;;;;;17.18;100.00;102477.69;5010333;28;20436;-73
2023/06/03 10:10:03;;;;;;;1.30;0.90;;;;;;;17.46;100.00;102483.00;5021242;28;20639;-73
2023/06/03 10:12:31;;;;;;;1.20;0.80;;;;;;;16.97;100.00;102378.34;5021592;28;20736;-74
2023/06/03 10:15:00;;;;;;;0.90;0.60;;;;;;;17.04;100.00;102403.63;5024277;28;20526;-74
2023/06/03 10:17:26;;;;;;;8.10;1.00;;;;;;;16.88;100.00;102353.31;5022461;28;20514;-73
2023/06/03 10:19:52;;;;;;;0.80;0.70;;;;;;;17.51;100.00;102493.25;5022967;28;20580;-74
2023/06/03 10:22:19;;;;;;;1.33;0.93;;;;;;;17.30;100.00;102431.81;5022715;28;20447;-74
2023/06/03 10:24:49;;;;;;;1.33;0.70;;;;;;;17.56;100.00;102447.31;5022893;28;20180;-74
2023/06/03 10:27:16;;;;;;;1.30;0.70;;;;;;;17.70;100.00;102473.44;5023488;28;20913;-73
2023/06/03 10:29:42;;;;;;;0.80;0.63;;;;;;;17.73;100.00;102478.44;5020888;28;20891;-74
2023/06/03 10:32:10;;;;;;;4.30;0.90;;;;;;;17.34;100.00;102401.38;5022782;28;20424;-73
2023/06/03 10:34:39;;;;;;;1.20;0.63;;;;;;;17.86;100.00;102463.28;5021191;28;20881;-74
2023/06/03 10:37:05;;;;;;;1.33;0.70;;;;;;;17.37;100.00;102387.41;5022405;28;20454;-74
2023/06/03 10:39:32;;;;;;;1.90;0.73;;;;;;;17.51;100.00;102372.00;5004765;28;20550;-74
2023/06/03 10:41:59;;;;;;;1.20;0.87;;;;;;;17.59;100.00;102365.53;5021926;28;20419;-74
2023/06/03 10:44:27;;;;;;;2.30;0.90;;;;;;;17.22;100.00;102340.66;5023335;28;20455;-73
2023/06/03 10:46:59;;;;;;;1.00;0.70;;;;;;;17.50;100.00;102367.63;5002842;28;20443;-74
2023/06/03 10:49:28;;;;;;;1.37;0.70;;;;;;;17.45;100.00;102369.28;5020352;28;20424;-74
2023/06/03 10:52:20;;;;;;;0.80;0.70;;;;;;;18.00;100.00;102448.66;5021019;28;20463;-74
2023/06/03 10:55:25;;;;;;;1.90;0.80;;;;;;;18.25;100.00;102452.41;5022288;28;20477;-74
2023/06/03 10:58:00;;;;;;;2.33;1.00;;;;;;;17.92;100.00;102446.16;5020996;28;20449;-74
2023/06/03 11:00:55;;;;;;;0.90;0.80;;;;;;;17.97;100.00;102444.47;5022505;28;20424;-74
2023/06/03 11:03:22;;;;;;;1.40;0.87;;;;;;;17.50;100.00;102324.22;5020150;28;21044;-74
2023/06/03 11:05:48;;;;;;;1.23;0.80;;;;;;;17.88;100.00;102331.72;5008394;28;20446;-74
2023/06/03 11:08:34;;;;;;;1.10;0.70;;;;;;;18.42;100.00;102436.47;5020813;28;20427;-74
2023/06/03 11:10:59;;;;;;;1.50;1.00;;;;;;;18.47;100.00;102444.81;5021868;28;20823;-74
2023/06/03 11:13:40;;;;;;;4.90;0.83;;;;;;;18.41;100.00;102439.41;5021914;28;20455;-74
2023/06/03 11:16:05;;;;;;;1.50;0.90;;;;;;;18.37;100.00;102400.13;5018666;28;20246;-74
2023/06/03 11:18:31;;;;;;;1.10;0.87;;;;;;;18.51;100.00;102409.91;5023321;28;20466;-74
2023/06/03 11:20:57;;;;;;;1.10;0.90;;;;;;;18.46;100.00;102426.03;5022301;28;20188;-73
2023/06/03 11:23:42;;;;;;;2.77;0.70;;;;;;;18.63;100.00;102432.69;5016982;28;20227;-73